createdAt,value
2018-06-16T00:01:25.544Z,61.65
2018-06-16T00:03:54.174Z,62.22
2018-06-16T00:06:22.327Z,62.29
2018-06-16T00:08:50.592Z,62.74
2018-06-16T00:11:18.707Z,63.00
2018-06-16T00:13:46.857Z,62.33
2018-06-16T00:16:15.058Z,62.73
2018-06-16T00:18:43.303Z,63.65
2018-06-16T00:21:11.429Z,63.91
2018-06-16T00:23:39.536Z,64.26
2018-06-16T00:26:07.661Z,64.37
2018-06-16T00:28:36.376Z,63.48
2018-06-16T00:31:04.520Z,63.38
2018-06-16T00:33:32.876Z,65.54
2018-06-16T00:36:01.395Z,64.87
2018-06-16T00:38:29.510Z,64.81
2018-06-16T00:40:58.385Z,65.67
2018-06-16T00:43:26.453Z,64.31
2018-06-16T00:45:54.723Z,64.81
2018-06-16T00:48:22.891Z,64.29
2018-06-16T00:50:51.026Z,64.52
2018-06-16T00:53:19.074Z,64.99
2018-06-16T00:55:47.399Z,65.40
2018-06-16T00:58:15.754Z,64.57
2018-06-16T01:00:43.864Z,63.61
2018-06-16T01:03:11.914Z,64.46
2018-06-16T01:05:40.373Z,64.25
2018-06-16T01:08:08.597Z,65.70
2018-06-16T01:10:36.982Z,64.88
2018-06-16T01:13:05.164Z,66.06
2018-06-16T01:15:33.978Z,65.02
2018-06-16T01:18:02.381Z,65.54
2018-06-16T01:20:30.467Z,68.25
2018-06-16T01:22:59.165Z,69.06
2018-06-16T01:25:27.237Z,69.97
2018-06-16T01:27:55.434Z,70.65
2018-06-16T01:30:23.509Z,70.49
2018-06-16T01:32:51.686Z,72.18
2018-06-16T01:35:19.809Z,72.21
2018-06-16T01:37:48.157Z,72.50
2018-06-16T01:40:16.306Z,72.56
2018-06-16T01:42:44.510Z,72.13
2018-06-16T01:45:13.095Z,74.37
2018-06-16T01:47:41.227Z,72.90
2018-06-16T01:50:09.310Z,74.76
2018-06-16T01:52:37.401Z,73.91
2018-06-16T01:55:05.520Z,74.13
2018-06-16T01:57:33.565Z,74.53
2018-06-16T02:00:02.270Z,75.41
2018-06-16T02:02:30.328Z,76.06
2018-06-16T02:04:58.515Z,75.02
2018-06-16T02:07:26.729Z,75.95
2018-06-16T02:09:55.022Z,76.18
2018-06-16T02:12:23.109Z,75.68
2018-06-16T02:14:51.199Z,75.45
2018-06-16T02:17:19.242Z,76.50
2018-06-16T02:19:47.457Z,77.12
2018-06-16T02:22:15.514Z,75.36
2018-06-16T02:24:44.511Z,75.97
2018-06-16T02:27:12.570Z,75.95
2018-06-16T02:29:40.606Z,75.19
2018-06-16T02:32:08.696Z,76.05
2018-06-16T02:34:36.947Z,76.74
2018-06-16T02:37:05.430Z,75.25
2018-06-16T02:39:33.467Z,75.48
2018-06-16T02:42:01.826Z,76.17
2018-06-16T02:44:30.371Z,75.39
2018-06-16T02:46:58.694Z,75.96
2018-06-16T02:49:26.910Z,74.98
2018-06-16T02:51:55.034Z,75.00
2018-06-16T02:54:23.477Z,75.28
2018-06-16T02:56:51.542Z,76.52
2018-06-16T02:59:19.782Z,76.08
2018-06-16T03:01:47.957Z,75.54
2018-06-16T03:04:16.045Z,76.21
2018-06-16T03:06:44.097Z,76.23
2018-06-16T03:09:12.222Z,75.85
2018-06-16T03:11:40.266Z,76.20
2018-06-16T03:14:08.588Z,76.29
2018-06-16T03:16:36.650Z,77.11
2018-06-16T03:19:04.821Z,76.59
2018-06-16T03:21:32.882Z,75.87
2018-06-16T03:24:00.993Z,76.42
2018-06-16T03:26:29.305Z,76.26
2018-06-16T03:28:57.402Z,75.25
2018-06-16T03:31:25.487Z,75.90
2018-06-16T03:33:53.706Z,75.46
2018-06-16T03:36:21.899Z,74.27
2018-06-16T03:38:49.950Z,75.70
2018-06-16T03:41:18.001Z,75.18
2018-06-16T03:43:46.161Z,74.35
2018-06-16T03:46:14.322Z,74.78
2018-06-16T03:48:42.336Z,73.02
2018-06-16T03:51:10.364Z,74.63
2018-06-16T03:53:38.555Z,71.21
2018-06-16T03:56:06.612Z,72.87
2018-06-16T03:58:34.653Z,74.85
2018-06-16T04:01:02.962Z,74.54
2018-06-16T04:03:31.169Z,73.74
2018-06-16T04:05:59.636Z,73.76
2018-06-16T04:08:27.705Z,74.20
2018-06-16T04:10:55.808Z,73.98
2018-06-16T04:13:23.893Z,74.40
2018-06-16T04:15:51.937Z,75.40
2018-06-16T04:18:20.104Z,76.09
2018-06-16T04:20:48.113Z,75.27
2018-06-16T04:23:16.646Z,74.64
2018-06-16T04:25:44.739Z,74.86
2018-06-16T04:28:12.803Z,73.87
2018-06-16T04:30:40.854Z,75.60
2018-06-16T04:33:08.906Z,76.08
2018-06-16T04:35:37.077Z,74.91
2018-06-16T04:38:05.365Z,75.31
2018-06-16T04:40:33.426Z,75.03
2018-06-16T04:43:01.723Z,75.21
2018-06-16T04:45:29.846Z,76.37
2018-06-16T04:47:58.018Z,75.72
2018-06-16T04:50:26.212Z,75.36
2018-06-16T04:52:54.269Z,74.96
2018-06-16T04:55:22.481Z,75.41
2018-06-16T04:57:50.860Z,77.18
2018-06-16T05:00:19.412Z,77.28
2018-06-16T05:02:47.523Z,75.90
2018-06-16T05:05:15.631Z,76.49
2018-06-16T05:07:43.870Z,78.20
2018-06-16T05:10:11.913Z,78.00
2018-06-16T05:12:40.043Z,79.50
2018-06-16T05:15:08.324Z,78.30
2018-06-16T05:17:36.554Z,78.53
2018-06-16T05:20:04.613Z,78.57
2018-06-16T05:22:33.737Z,80.30
2018-06-16T05:25:01.781Z,81.14
2018-06-16T05:27:36.889Z,80.56
2018-06-16T05:30:04.958Z,81.84
2018-06-16T05:32:33.430Z,81.09
2018-06-16T05:35:01.518Z,78.05
2018-06-16T05:37:29.946Z,78.62
2018-06-16T05:39:58.142Z,77.78
2018-06-16T05:42:27.352Z,76.48
2018-06-16T05:44:56.689Z,74.60
2018-06-16T05:47:24.811Z,75.17
2018-06-16T05:49:53.328Z,71.91
2018-06-16T05:52:21.851Z,68.06
2018-06-16T05:54:50.185Z,65.82
2018-06-16T05:57:18.270Z,65.68
2018-06-16T05:59:46.466Z,68.80
2018-06-16T06:02:14.673Z,64.70
2018-06-16T06:04:42.866Z,65.47
2018-06-16T06:07:13.080Z,68.01
2018-06-16T06:09:41.376Z,71.10
2018-06-16T06:12:09.533Z,68.93
2018-06-16T06:14:37.726Z,70.30
2018-06-16T06:17:05.962Z,67.54
2018-06-16T06:19:34.215Z,68.31
2018-06-16T06:22:02.432Z,68.60
2018-06-16T06:24:30.609Z,66.77
2018-06-16T06:26:59.344Z,67.12
2018-06-16T06:29:27.630Z,69.42
2018-06-16T06:31:55.941Z,70.20
2018-06-16T06:34:24.060Z,69.12
2018-06-16T06:36:52.484Z,68.10
2018-06-16T06:39:27.593Z,69.74
2018-06-16T06:41:56.062Z,67.18
2018-06-16T06:44:24.205Z,66.71
2018-06-16T06:46:53.156Z,67.54
2018-06-16T06:49:21.229Z,64.29
2018-06-16T06:51:50.260Z,66.77
2018-06-16T06:54:18.346Z,63.47
2018-06-16T06:56:46.705Z,65.37
2018-06-16T06:59:15.792Z,64.60
2018-06-16T07:01:44.174Z,63.77
2018-06-16T07:04:12.254Z,63.94
2018-06-16T07:06:40.683Z,64.23
2018-06-16T07:09:10.429Z,62.60
2018-06-16T07:11:39.278Z,63.17
2018-06-16T07:14:08.007Z,61.36
2018-06-16T07:16:36.410Z,59.15
2018-06-16T07:19:04.660Z,66.17
2018-06-16T07:21:32.894Z,67.29
2018-06-16T07:24:01.247Z,64.03
2018-06-16T07:26:30.022Z,63.72
2018-06-16T07:28:58.090Z,64.78
2018-06-16T07:31:26.280Z,66.27
2018-06-16T07:33:54.553Z,66.08
2018-06-16T07:36:22.756Z,65.40
2018-06-16T07:38:50.991Z,60.25
2018-06-16T07:41:19.144Z,57.37
2018-06-16T07:43:47.253Z,56.77
2018-06-16T07:46:15.481Z,55.81
2018-06-16T07:48:43.919Z,53.82
2018-06-16T07:51:11.998Z,52.67
2018-06-16T07:53:40.125Z,53.43
2018-06-16T07:56:08.375Z,55.20
2018-06-16T07:58:37.689Z,57.06
2018-06-16T08:01:05.901Z,56.48
2018-06-16T08:03:34.593Z,56.19
2018-06-16T08:06:02.852Z,55.24
2018-06-16T08:08:31.304Z,51.21
2018-06-16T08:10:59.688Z,53.87
2018-06-16T08:13:28.120Z,55.09
2018-06-16T08:15:56.566Z,51.48
2018-06-16T08:18:24.697Z,53.27
2018-06-16T08:20:53.599Z,55.29
2018-06-16T08:23:21.904Z,56.86
2018-06-16T08:25:50.247Z,54.40
2018-06-16T08:28:18.775Z,54.79
2018-06-16T08:30:47.038Z,53.38
2018-06-16T08:33:15.566Z,48.73
2018-06-16T08:35:44.289Z,50.75
2018-06-16T08:38:12.952Z,51.71
2018-06-16T08:40:41.440Z,50.28
2018-06-16T08:43:09.799Z,51.52
2018-06-16T08:45:38.003Z,49.17
2018-06-16T08:48:06.300Z,47.97
2018-06-16T08:50:35.539Z,48.64
2018-06-16T08:53:04.333Z,46.59
2018-06-16T08:55:32.539Z,46.01
2018-06-16T08:58:00.834Z,49.05
2018-06-16T09:00:29.443Z,49.97
2018-06-16T09:02:57.799Z,49.02
2018-06-16T09:05:26.412Z,46.62
2018-06-16T09:07:55.177Z,51.38
2018-06-16T09:10:23.890Z,48.23
2018-06-16T09:12:52.375Z,48.92
2018-06-16T09:15:20.800Z,48.74
2018-06-16T09:17:49.638Z,46.64
2018-06-16T09:20:18.171Z,46.42
2018-06-16T09:22:46.679Z,46.46
2018-06-16T09:25:16.457Z,45.95
2018-06-16T09:27:45.666Z,45.71
2018-06-16T09:30:14.251Z,47.02
2018-06-16T09:32:42.739Z,46.86
2018-06-16T09:35:12.849Z,43.72
2018-06-16T09:37:41.939Z,46.46
2018-06-16T09:40:10.632Z,43.56
2018-06-16T09:42:39.336Z,46.25
2018-06-16T09:45:08.056Z,44.57
2018-06-16T09:47:37.050Z,41.87
2018-06-16T09:50:05.670Z,41.50
2018-06-16T09:52:34.047Z,44.32
2018-06-16T09:55:03.368Z,42.01
2018-06-16T09:57:31.847Z,44.85
2018-06-16T10:00:00.141Z,43.55
2018-06-16T10:02:28.638Z,40.73
2018-06-16T10:04:56.870Z,40.77
2018-06-16T10:07:25.302Z,40.29
2018-06-16T10:09:53.517Z,39.45
2018-06-16T10:12:21.880Z,40.57
2018-06-16T10:14:50.327Z,42.64
2018-06-16T10:17:18.392Z,39.03
2018-06-16T10:19:47.029Z,39.74
2018-06-16T10:22:15.397Z,43.94
2018-06-16T10:24:43.649Z,43.00
2018-06-16T10:27:12.164Z,42.23
2018-06-16T10:29:40.683Z,41.31
2018-06-16T10:32:09.187Z,39.98
2018-06-16T10:34:37.473Z,40.42
2018-06-16T10:37:05.313Z,43.14
2018-06-16T10:39:33.935Z,39.99
2018-06-16T10:42:02.255Z,40.14
2018-06-16T10:44:30.550Z,40.58
2018-06-16T10:46:58.741Z,40.28
2018-06-16T10:49:26.945Z,42.23
2018-06-16T10:51:55.318Z,39.33
2018-06-16T10:54:23.436Z,40.89
2018-06-16T10:56:51.690Z,38.70
2018-06-16T10:59:20.142Z,39.70
2018-06-16T11:01:48.263Z,41.89
2018-06-16T11:04:16.796Z,40.76
2018-06-16T11:06:45.539Z,36.80
2018-06-16T11:09:13.976Z,37.58
2018-06-16T11:11:42.104Z,36.77
2018-06-16T11:14:10.195Z,35.62
2018-06-16T11:16:38.526Z,34.56
2018-06-16T11:19:07.507Z,38.04
2018-06-16T11:21:36.038Z,35.81
2018-06-16T11:24:04.355Z,37.62
2018-06-16T11:26:32.709Z,38.81
2018-06-16T11:29:01.141Z,35.71
2018-06-16T11:31:29.471Z,36.21
2018-06-16T11:33:58.205Z,34.70
2018-06-16T11:36:26.794Z,37.39
2018-06-16T11:38:55.050Z,37.32
2018-06-16T11:41:24.089Z,37.54
2018-06-16T11:43:52.321Z,37.70
2018-06-16T11:46:20.743Z,37.41
2018-06-16T11:48:49.479Z,35.06
2018-06-16T11:51:17.573Z,39.62
2018-06-16T11:53:45.837Z,41.08
2018-06-16T11:56:14.354Z,36.81
2018-06-16T11:58:42.786Z,39.28
2018-06-16T12:01:11.067Z,40.57
2018-06-16T12:03:39.552Z,38.93
2018-06-16T12:06:07.973Z,41.45
2018-06-16T12:08:36.414Z,40.26
2018-06-16T12:11:05.374Z,39.83
2018-06-16T12:13:33.722Z,39.63
2018-06-16T12:16:02.428Z,39.98
2018-06-16T12:18:30.938Z,39.35
2018-06-16T12:20:59.229Z,39.90
2018-06-16T12:23:27.718Z,39.22
2018-06-16T12:25:55.989Z,39.83
2018-06-16T12:28:24.094Z,38.76
2018-06-16T12:30:52.925Z,39.04
2018-06-16T12:33:21.143Z,39.35
2018-06-16T12:35:49.623Z,35.91
2018-06-16T12:38:18.308Z,36.39
2018-06-16T12:40:46.893Z,34.91
2018-06-16T12:43:15.127Z,35.87
2018-06-16T12:45:43.340Z,37.46
2018-06-16T12:48:11.686Z,36.64
2018-06-16T12:50:39.916Z,35.71
2018-06-16T12:53:08.092Z,36.20
2018-06-16T12:55:36.308Z,37.34
2018-06-16T12:58:04.519Z,38.68
2018-06-16T13:00:33.261Z,39.15
2018-06-16T13:03:01.441Z,38.72
2018-06-16T13:05:29.575Z,43.25
2018-06-16T13:07:57.881Z,41.41
2018-06-16T13:10:26.036Z,40.67
2018-06-16T13:12:54.369Z,40.21
2018-06-16T13:15:22.543Z,39.15
2018-06-16T13:17:50.898Z,41.62
2018-06-16T13:20:19.114Z,39.57
2018-06-16T13:22:47.346Z,39.77
2018-06-16T13:25:15.436Z,40.29
2018-06-16T13:27:43.564Z,43.84
2018-06-16T13:30:11.839Z,38.38
2018-06-16T13:32:40.109Z,41.93
2018-06-16T13:35:08.425Z,40.55
2018-06-16T13:37:36.663Z,49.47
2018-06-16T13:40:04.976Z,43.22
2018-06-16T13:42:33.142Z,41.66
2018-06-16T13:45:01.199Z,39.03
2018-06-16T13:47:29.404Z,39.16
2018-06-16T13:49:57.573Z,40.64
2018-06-16T13:52:25.754Z,37.83
2018-06-16T13:54:53.975Z,42.55
2018-06-16T13:57:22.155Z,42.25
2018-06-16T13:59:50.465Z,41.21
2018-06-16T14:02:18.563Z,41.02
2018-06-16T14:04:46.743Z,39.50
2018-06-16T14:07:15.095Z,37.42
2018-06-16T14:09:43.342Z,38.42
2018-06-16T14:12:12.147Z,37.04
2018-06-16T14:14:40.585Z,36.67
2018-06-16T14:17:08.882Z,37.56
2018-06-16T14:19:37.095Z,38.08
2018-06-16T14:22:05.449Z,36.64
2018-06-16T14:24:33.722Z,37.04
2018-06-16T14:27:02.290Z,40.49
2018-06-16T14:29:30.477Z,37.33
2018-06-16T14:31:59.024Z,38.13
2018-06-16T14:34:27.140Z,36.50
2018-06-16T14:36:55.756Z,39.92
2018-06-16T14:39:24.316Z,38.31
2018-06-16T14:41:52.554Z,38.72
2018-06-16T14:44:23.742Z,38.62
2018-06-16T14:46:52.677Z,38.38
2018-06-16T14:49:21.139Z,36.90
2018-06-16T14:51:49.484Z,36.18
2018-06-16T14:54:24.701Z,36.46
2018-06-16T14:56:52.950Z,38.92
2018-06-16T14:59:21.195Z,38.30
2018-06-16T15:01:49.883Z,39.19
2018-06-16T15:04:18.099Z,38.26
2018-06-16T15:06:46.686Z,40.04
2018-06-16T15:09:15.098Z,40.12
2018-06-16T15:11:43.720Z,36.87
2018-06-16T15:14:12.239Z,38.67
2018-06-16T15:16:40.829Z,37.93
2018-06-16T15:19:09.072Z,37.76
2018-06-16T15:21:37.182Z,38.31
2018-06-16T15:24:05.806Z,43.29
2018-06-16T15:26:34.018Z,41.10
2018-06-16T15:29:03.035Z,40.83
2018-06-16T15:31:31.053Z,39.18
2018-06-16T15:33:59.590Z,40.41
2018-06-16T15:36:27.932Z,40.99
2018-06-16T15:38:56.025Z,39.23
2018-06-16T15:41:24.295Z,39.30
2018-06-16T15:43:52.522Z,38.08
2018-06-16T15:46:20.635Z,37.33
2018-06-16T15:48:48.811Z,39.23
2018-06-16T15:51:17.284Z,36.81
2018-06-16T15:53:45.302Z,39.15
2018-06-16T15:56:13.537Z,41.20
2018-06-16T15:58:41.605Z,40.12
2018-06-16T16:01:09.767Z,41.92
2018-06-16T16:03:37.840Z,41.67
2018-06-16T16:06:06.623Z,40.99
2018-06-16T16:08:35.065Z,40.82
2018-06-16T16:11:03.862Z,39.00
2018-06-16T16:13:32.101Z,39.03
2018-06-16T16:16:00.695Z,38.68
2018-06-16T16:18:28.802Z,37.59
2018-06-16T16:20:56.974Z,36.93
2018-06-16T16:23:25.167Z,35.18
2018-06-16T16:25:53.573Z,33.20
2018-06-16T16:28:22.148Z,33.66
2018-06-16T16:30:50.370Z,34.68
2018-06-16T16:33:18.515Z,32.01
2018-06-16T16:35:46.677Z,34.58
2018-06-16T16:38:15.170Z,35.54
2018-06-16T16:40:43.607Z,34.95
2018-06-16T16:43:12.222Z,35.02
2018-06-16T16:45:40.309Z,35.31
2018-06-16T16:48:09.083Z,35.46
2018-06-16T16:50:37.310Z,35.87
2018-06-16T16:53:05.654Z,35.91
2018-06-16T16:55:34.423Z,35.69
2018-06-16T16:58:02.936Z,36.78
2018-06-16T17:00:31.100Z,35.69
2018-06-16T17:02:59.640Z,38.26
2018-06-16T17:05:28.513Z,35.82
2018-06-16T17:08:02.838Z,35.91
2018-06-16T17:10:32.290Z,37.79
2018-06-16T17:13:01.758Z,37.68
2018-06-16T17:15:31.104Z,38.43
2018-06-16T17:17:59.842Z,39.03
2018-06-16T17:20:28.268Z,39.41
2018-06-16T17:22:57.677Z,38.80
2018-06-16T17:25:26.173Z,41.92
2018-06-16T17:27:54.837Z,40.60
2018-06-16T17:30:23.413Z,41.13
2018-06-16T17:32:52.184Z,39.92
2018-06-16T17:35:20.617Z,40.15
2018-06-16T17:37:48.659Z,41.36
2018-06-16T17:40:16.881Z,41.34
2018-06-16T17:42:45.125Z,41.08
2018-06-16T17:45:13.984Z,41.52
2018-06-16T17:47:42.291Z,41.62
2018-06-16T17:50:11.220Z,42.39
2018-06-16T17:52:39.522Z,42.10
2018-06-16T17:55:08.474Z,41.89
2018-06-16T17:57:37.378Z,41.93
2018-06-16T18:00:06.342Z,42.93
2018-06-16T18:02:34.892Z,44.04
2018-06-16T18:05:03.618Z,44.77
2018-06-16T18:07:31.701Z,43.30
2018-06-16T18:10:00.543Z,44.32
2018-06-16T18:12:29.600Z,44.24
2018-06-16T18:14:57.836Z,44.78
2018-06-16T18:17:26.100Z,43.36
2018-06-16T18:19:54.433Z,44.57
2018-06-16T18:22:22.562Z,45.71
2018-06-16T18:24:50.669Z,44.00
2018-06-16T18:27:18.813Z,45.63
2018-06-16T18:29:50.025Z,46.78
2018-06-16T18:32:18.279Z,45.13
2018-06-16T18:34:46.486Z,45.22
2018-06-16T18:37:15.468Z,44.57
2018-06-16T18:39:44.553Z,48.24
2018-06-16T18:42:12.953Z,48.55
2018-06-16T18:44:41.673Z,50.07
2018-06-16T18:47:09.881Z,51.41
2018-06-16T18:49:38.146Z,52.17
2018-06-16T18:52:06.669Z,51.15
2018-06-16T18:54:34.951Z,52.55
2018-06-16T18:57:03.230Z,52.89
2018-06-16T18:59:32.100Z,53.57
2018-06-16T19:02:00.489Z,53.85
2018-06-16T19:04:28.763Z,54.50
2018-06-16T19:06:57.058Z,55.24
2018-06-16T19:09:25.390Z,57.27
2018-06-16T19:11:54.398Z,57.91
2018-06-16T19:14:22.538Z,58.78
2018-06-16T19:16:50.756Z,59.00
2018-06-16T19:19:19.394Z,59.50
2018-06-16T19:21:47.522Z,59.86
2018-06-16T19:24:15.810Z,60.05
2018-06-16T19:26:43.942Z,59.98
2018-06-16T19:29:12.488Z,61.06
2018-06-16T19:31:40.561Z,61.07
2018-06-16T19:34:09.061Z,60.81
2018-06-16T19:36:37.372Z,61.07
2018-06-16T19:39:09.263Z,61.32
2018-06-16T19:41:37.800Z,60.06
2018-06-16T19:44:06.523Z,60.53
2018-06-16T19:46:34.921Z,61.24
2018-06-16T19:49:03.305Z,61.14
2018-06-16T19:51:31.644Z,62.44
2018-06-16T19:53:59.920Z,62.62
2018-06-16T19:56:28.261Z,62.39
2018-06-16T19:58:57.393Z,63.52
2018-06-16T20:01:26.277Z,63.11
2018-06-16T20:03:55.084Z,63.48
2018-06-16T20:06:23.529Z,62.96
2018-06-16T20:08:51.812Z,64.84
2018-06-16T20:11:21.179Z,64.31
2018-06-16T20:13:49.424Z,65.48
2018-06-16T20:16:18.237Z,65.97
2018-06-16T20:18:46.545Z,65.83
2018-06-16T20:21:15.018Z,64.57
2018-06-16T20:23:43.201Z,64.28
2018-06-16T20:26:12.120Z,63.76
2018-06-16T20:28:40.504Z,64.32
2018-06-16T20:31:09.454Z,63.10
2018-06-16T20:33:37.934Z,62.69
2018-06-16T20:36:06.282Z,62.87
2018-06-16T20:38:34.789Z,65.77
2018-06-16T20:41:03.123Z,64.78
2018-06-16T20:43:35.354Z,66.10
2018-06-16T20:46:03.696Z,65.33
2018-06-16T20:48:31.963Z,65.06
2018-06-16T20:51:00.629Z,66.46
2018-06-16T20:53:29.029Z,66.12
2018-06-16T20:55:57.323Z,66.71
2018-06-16T20:58:25.809Z,66.13
2018-06-16T21:00:54.237Z,67.70
2018-06-16T21:03:22.841Z,67.36
2018-06-16T21:05:51.160Z,67.25
2018-06-16T21:08:19.663Z,67.83
2018-06-16T21:10:48.168Z,68.20
2018-06-16T21:13:16.786Z,67.96
2018-06-16T21:15:44.988Z,70.20
2018-06-16T21:18:13.870Z,69.60
2018-06-16T21:20:43.170Z,69.55
2018-06-16T21:23:12.063Z,70.14
2018-06-16T21:25:40.891Z,70.42
2018-06-16T21:28:09.206Z,71.20
2018-06-16T21:30:37.535Z,70.93
2018-06-16T21:33:05.880Z,70.15
2018-06-16T21:35:34.360Z,70.85
2018-06-16T21:38:02.526Z,70.90
2018-06-16T21:40:31.333Z,71.32
2018-06-16T21:42:59.494Z,68.90
2018-06-16T21:45:27.770Z,67.12
2018-06-16T21:47:55.897Z,66.85
2018-06-16T21:50:24.109Z,66.43
2018-06-16T21:52:52.293Z,65.91
2018-06-16T21:55:20.582Z,67.13
2018-06-16T21:57:48.705Z,66.66
2018-06-16T22:00:16.903Z,66.50
2018-06-16T22:02:45.053Z,66.49
2018-06-16T22:05:13.269Z,66.95
2018-06-16T22:07:41.433Z,68.11
2018-06-16T22:10:09.842Z,67.89
2018-06-16T22:12:38.434Z,68.38
2018-06-16T22:15:06.648Z,68.86
2018-06-16T22:17:35.193Z,69.98
2018-06-16T22:20:03.917Z,69.24
2018-06-16T22:22:32.430Z,70.46
2018-06-16T22:25:00.668Z,69.88
2018-06-16T22:27:28.835Z,71.47
2018-06-16T22:29:57.135Z,70.63
2018-06-16T22:32:25.469Z,70.53
2018-06-16T22:34:53.630Z,70.10
2018-06-16T22:37:21.853Z,70.44
2018-06-16T22:39:49.971Z,70.35
2018-06-16T22:42:18.110Z,70.60
2018-06-16T22:44:46.217Z,69.12
2018-06-16T22:47:14.292Z,68.95
2018-06-16T22:49:42.389Z,69.71
2018-06-16T22:52:10.568Z,69.77
2018-06-16T22:54:38.677Z,71.17
2018-06-16T22:57:06.856Z,72.49
2018-06-16T22:59:35.506Z,73.80
2018-06-16T23:02:03.994Z,74.16
2018-06-16T23:04:32.126Z,75.94
2018-06-16T23:07:00.265Z,75.44
2018-06-16T23:09:28.448Z,75.98
2018-06-16T23:11:56.530Z,75.31
2018-06-16T23:14:24.619Z,76.04
2018-06-16T23:16:52.752Z,75.22
2018-06-16T23:19:20.982Z,76.45
2018-06-16T23:21:49.160Z,75.41
2018-06-16T23:24:17.261Z,76.21
2018-06-16T23:26:45.337Z,75.65
2018-06-16T23:29:13.448Z,75.40
2018-06-16T23:31:41.557Z,75.78
2018-06-16T23:34:09.671Z,75.09
2018-06-16T23:36:37.829Z,75.83
2018-06-16T23:39:09.679Z,75.62
2018-06-16T23:41:38.473Z,75.75
2018-06-16T23:44:06.598Z,76.96
2018-06-16T23:46:34.778Z,77.51
2018-06-16T23:49:03.254Z,77.07
2018-06-16T23:51:31.425Z,76.51
2018-06-16T23:53:59.578Z,76.13
2018-06-16T23:56:28.574Z,76.43
2018-06-16T23:58:56.972Z,76.22
